PWSweather.com
Personal Weather Stations
Station Observations
WA6MVG
Nw Lake Tapps, Auburn, WA 98092

Nw Lake TappsAuburn, WA 98092

Lat: 47.250153, Lon: -122.195483

Elevation: 500

Station Type: Oregon Scientific WMR100a

http://www.wa6mvg.com/wxindex.php

Latest ConditionsUpdated 3:15:00 PM PST Sunday, Dec 16, 2018
Currently Today's Max Today's Min Today's Average
Temperature 49.9°F9.9°C 50.9°F10.5°C 42.3°F5.7°C 46.3°F7.9°C
Dew Point 47.3°F8.5°C 48.2°F9.0°C 39.8°F4.3°C 43.5°F6.4°C
Winds Calm Calm Calm -Calm - - Calm Calm
Wind Gusts 1.2 mph1.9 kmh 2.3 mph3.7 kmh - -
Humidity 91% 93% 81% 90%
Pressure 29.65 in1004.1 mb 29.82 in1009.8 mb 29.61 in1002.7 mb -
Precipitation - 0.01 in0.3 mm - -
Hour Temp Dew Point Humidity Winds Wind Gusts Pressure Precip Precip Rate Daily Precip Total
03:15 PM 49.9°F9.9°C 47.3°F8.5°C 91% Calm Calm 1.2 mph1.9 kmh 29.65 in1004.1 mb - 0.00 in0.0 mm 0.01 in0.3 mm
03:00 PM 49.8°F9.9°C 47.3°F8.5°C 91% Calm Calm -- 29.64 in1003.7 mb - 0.00 in0.0 mm 0.01 in0.3 mm
02:45 PM 49.8°F9.9°C 47.3°F8.5°C 91% Calm Calm -- 29.62 in1003.0 mb - 0.00 in0.0 mm 0.01 in0.3 mm
02:30 PM 50.2°F10.1°C 47.7°F8.7°C 91% Calm Calm -- 29.62 in1003.0 mb - 0.00 in0.0 mm 0.01 in0.3 mm
02:15 PM 50.4°F10.2°C 47.5°F8.6°C 90% Calm Calm -- 29.61 in1002.7 mb - 0.00 in0.0 mm 0.01 in0.3 mm
02:00 PM 50.7°F10.4°C 48.2°F9.0°C 91% Calm Calm -- 29.62 in1003.0 mb - 0.00 in0.0 mm 0.01 in0.3 mm
01:45 PM 50.9°F10.5°C 47.8°F8.8°C 89% Calm Calm -- 29.62 in1003.0 mb - 0.00 in0.0 mm 0.01 in0.3 mm
01:30 PM 50.9°F10.5°C 48.1°F8.9°C 90% Calm Calm -- 29.62 in1003.0 mb - 0.00 in0.0 mm 0.01 in0.3 mm
01:15 PM 50.7°F10.4°C 47.3°F8.5°C 88% Calm Calm -- 29.62 in1003.0 mb - 0.00 in0.0 mm 0.01 in0.3 mm
01:00 PM 50.5°F10.3°C 46.8°F8.2°C 87% Calm Calm -- 29.62 in1003.0 mb - 0.00 in0.0 mm 0.01 in0.3 mm
12:45 PM 50.4°F10.2°C 46.3°F7.9°C 86% Calm Calm -- 29.62 in1003.0 mb - 0.00 in0.0 mm 0.01 in0.3 mm
12:30 PM 50.4°F10.2°C 45.4°F7.4°C 83% Calm Calm -- 29.62 in1003.0 mb - 0.00 in0.0 mm 0.01 in0.3 mm
12:15 PM 50.5°F10.3°C 46.2°F7.9°C 85% Calm Calm -- 29.63 in1003.4 mb - 0.00 in0.0 mm 0.01 in0.3 mm
12:00 PM 50.4°F10.2°C 45.1°F7.3°C 82% Calm Calm -- 29.64 in1003.7 mb - 0.00 in0.0 mm 0.01 in0.3 mm
11:45 AM 50.5°F10.3°C 45.2°F7.3°C 82% Calm Calm -- 29.64 in1003.7 mb - 0.00 in0.0 mm 0.01 in0.3 mm
11:30 AM 50.2°F10.1°C 45.5°F7.5°C 84% Calm Calm -- 29.64 in1003.7 mb - 0.00 in0.0 mm 0.01 in0.3 mm
11:15 AM 49.7°F9.8°C 44.4°F6.9°C 82% Calm Calm -- 29.64 in1003.7 mb - 0.00 in0.0 mm 0.01 in0.3 mm
11:00 AM 49.1°F9.5°C 43.6°F6.4°C 81% Calm Calm -- 29.65 in1004.1 mb - 0.00 in0.0 mm 0.01 in0.3 mm
10:45 AM 48.6°F9.2°C 43.3°F6.3°C 82% Calm Calm -- 29.66 in1004.4 mb - 0.00 in0.0 mm 0.01 in0.3 mm
10:30 AM 48.0°F8.9°C 44.0°F6.7°C 86% Calm Calm -- 29.67 in1004.7 mb - 0.00 in0.0 mm 0.01 in0.3 mm
10:15 AM 47.5°F8.6°C 43.5°F6.4°C 86% Calm Calm 1.2 mph1.9 kmh 29.67 in1004.7 mb - 0.00 in0.0 mm 0.01 in0.3 mm
10:00 AM 46.9°F8.3°C 43.3°F6.3°C 87% Calm Calm -- 29.67 in1004.7 mb - 0.00 in0.0 mm 0.01 in0.3 mm
09:45 AM 46.6°F8.1°C 43.5°F6.4°C 89% Calm Calm -- 29.68 in1005.1 mb - 0.00 in0.0 mm 0.01 in0.3 mm
09:30 AM 46.0°F7.8°C 43.8°F6.6°C 92% Calm Calm -- 29.68 in1005.1 mb - 0.00 in0.0 mm 0.01 in0.3 mm
09:15 AM 45.9°F7.7°C 44.0°F6.7°C 93% Calm Calm -- 29.69 in1005.4 mb - 0.00 in0.0 mm 0.01 in0.3 mm
09:00 AM 45.7°F7.6°C 43.8°F6.6°C 93% Calm Calm -- 29.68 in1005.1 mb - 0.00 in0.0 mm 0.01 in0.3 mm
08:45 AM 45.7°F7.6°C 43.8°F6.6°C 93% Calm Calm -- 29.69 in1005.4 mb - 0.00 in0.0 mm 0.01 in0.3 mm
08:30 AM 45.5°F7.5°C 43.6°F6.4°C 93% Calm Calm -- 29.69 in1005.4 mb - 0.00 in0.0 mm 0.01 in0.3 mm
08:15 AM 45.4°F7.4°C 43.5°F6.4°C 93% Calm Calm -- 29.69 in1005.4 mb - 0.00 in0.0 mm 0.01 in0.3 mm
08:00 AM 45.5°F7.5°C 43.6°F6.4°C 93% Calm Calm -- 29.69 in1005.4 mb - 0.00 in0.0 mm 0.01 in0.3 mm
07:45 AM 45.7°F7.6°C 43.8°F6.6°C 93% Calm Calm -- 29.68 in1005.1 mb - 0.00 in0.0 mm 0.01 in0.3 mm
07:30 AM 45.7°F7.6°C 43.8°F6.6°C 93% Calm Calm -- 29.68 in1005.1 mb - 0.00 in0.0 mm 0.01 in0.3 mm
07:15 AM 45.8°F7.7°C 43.9°F6.6°C 93% Calm Calm -- 29.69 in1005.4 mb - 0.00 in0.0 mm 0.01 in0.3 mm
07:00 AM 45.9°F7.7°C 43.7°F6.5°C 92% Calm Calm -- 29.68 in1005.1 mb - 0.00 in0.0 mm 0.01 in0.3 mm
06:45 AM 45.9°F7.7°C 43.7°F6.5°C 92% Calm Calm -- 29.69 in1005.4 mb - 0.00 in0.0 mm 0.01 in0.3 mm
06:30 AM 45.9°F7.7°C 43.7°F6.5°C 92% Calm Calm -- 29.69 in1005.4 mb - 0.00 in0.0 mm 0.01 in0.3 mm
06:15 AM 45.9°F7.7°C 43.4°F6.3°C 91% Calm Calm -- 29.69 in1005.4 mb - 0.00 in0.0 mm 0.01 in0.3 mm
06:00 AM 45.9°F7.7°C 43.4°F6.3°C 91% Calm Calm -- 29.69 in1005.4 mb - 0.00 in0.0 mm 0.01 in0.3 mm
05:45 AM 45.9°F7.7°C 43.4°F6.3°C 91% Calm Calm -- 29.68 in1005.1 mb - 0.00 in0.0 mm 0.01 in0.3 mm
05:30 AM 45.9°F7.7°C 43.4°F6.3°C 91% Calm Calm -- 29.68 in1005.1 mb - 0.00 in0.0 mm 0.01 in0.3 mm
05:15 AM 45.4°F7.4°C 42.7°F5.9°C 90% Calm Calm -- 29.69 in1005.4 mb - 0.00 in0.0 mm 0.01 in0.3 mm
05:00 AM 45.4°F7.4°C 42.9°F6.1°C 91% Calm Calm 1.2 mph1.9 kmh 29.69 in1005.4 mb - 0.00 in0.0 mm 0.01 in0.3 mm
04:45 AM 45.0°F7.2°C 42.5°F5.8°C 91% Calm Calm -- 29.70 in1005.8 mb - 0.00 in0.0 mm 0.01 in0.3 mm
04:30 AM 44.4°F6.9°C 42.5°F5.8°C 93% Calm Calm -- 29.71 in1006.1 mb - 0.00 in0.0 mm 0.01 in0.3 mm
04:15 AM 43.9°F6.6°C 42.0°F5.6°C 93% Calm Calm -- 29.73 in1006.8 mb - 0.00 in0.0 mm 0.01 in0.3 mm
04:00 AM 43.4°F6.3°C 41.5°F5.3°C 93% Calm Calm -- 29.74 in1007.1 mb - 0.00 in0.0 mm 0.01 in0.3 mm
03:45 AM 43.2°F6.2°C 41.3°F5.2°C 93% Calm Calm -- 29.76 in1007.8 mb - 0.00 in0.0 mm 0.01 in0.3 mm
03:30 AM 43.0°F6.1°C 41.1°F5.1°C 93% Calm Calm -- 29.76 in1007.8 mb - 0.00 in0.0 mm 0.01 in0.3 mm
03:15 AM 42.6°F5.9°C 40.7°F4.8°C 93% Calm Calm -- 29.76 in1007.8 mb - 0.00 in0.0 mm 0.01 in0.3 mm
03:00 AM 42.6°F5.9°C 40.7°F4.8°C 93% Calm Calm -- 29.77 in1008.1 mb - 0.00 in0.0 mm 0.01 in0.3 mm
02:45 AM 42.4°F5.8°C 40.6°F4.8°C 93% Calm Calm -- 29.76 in1007.8 mb - 0.00 in0.0 mm 0.01 in0.3 mm
02:30 AM 42.3°F5.7°C 40.4°F4.7°C 93% Calm Calm -- 29.77 in1008.1 mb - 0.00 in0.0 mm 0.01 in0.3 mm
02:15 AM 42.3°F5.7°C 40.4°F4.7°C 93% Calm Calm -- 29.78 in1008.5 mb - 0.00 in0.0 mm 0.01 in0.3 mm
02:00 AM 42.3°F5.7°C 40.4°F4.7°C 93% Calm Calm -- 29.78 in1008.5 mb - 0.01 in0.3 mm 0.01 in0.3 mm
01:45 AM 42.3°F5.7°C 40.4°F4.7°C 93% Calm Calm -- 29.78 in1008.5 mb - 0.01 in0.3 mm 0.01 in0.3 mm
01:30 AM 42.3°F5.7°C 40.1°F4.5°C 92% Calm Calm -- 29.78 in1008.5 mb - 0.01 in0.3 mm 0.01 in0.3 mm
01:15 AM 42.3°F5.7°C 40.1°F4.5°C 92% Calm Calm -- 29.79 in1008.8 mb - 0.01 in0.3 mm 0.01 in0.3 mm
01:00 AM 42.4°F5.8°C 40.0°F4.4°C 91% Calm Calm -- 29.80 in1009.1 mb - 0.00 in0.0 mm 0.00 in0.0 mm
12:45 AM 42.4°F5.8°C 40.0°F4.4°C 91% Calm Calm -- 29.80 in1009.1 mb - 0.00 in0.0 mm 0.00 in0.0 mm
12:30 AM 42.4°F5.8°C 40.0°F4.4°C 91% Calm Calm -- 29.81 in1009.5 mb - 0.00 in0.0 mm 0.00 in0.0 mm
12:15 AM 42.6°F5.9°C 39.9°F4.4°C 90% Calm Calm 2.3 mph3.7 kmh 29.82 in1009.8 mb - 0.00 in0.0 mm 0.00 in0.0 mm
12:00 AM 43.2°F6.2°C 39.8°F4.3°C 88% Calm Calm 1.2 mph1.9 kmh 29.82 in1009.8 mb - 0.00 in0.0 mm 0.00 in0.0 mm